sensor_id;sensor_type;location;lat;lon;timestamp;P1;durP1;ratioP1;P2;durP2;ratioP2
66483;SDS011;53299;52.160;7.556;2022-10-31T00:00:00;10.73;;;5.80;;
66483;SDS011;53299;52.160;7.556;2022-10-31T00:02:25;9.87;;;5.67;;
66483;SDS011;53299;52.160;7.556;2022-10-31T00:04:50;11.43;;;5.37;;
66483;SDS011;53299;52.160;7.556;2022-10-31T00:07:15;8.93;;;5.17;;
66483;SDS011;53299;52.160;7.556;2022-10-31T00:09:41;11.73;;;5.70;;
66483;SDS011;53299;52.160;7.556;2022-10-31T00:12:06;10.03;;;5.30;;
66483;SDS011;53299;52.160;7.556;2022-10-31T00:14:31;11.18;;;5.57;;
66483;SDS011;53299;52.160;7.556;2022-10-31T00:16:56;9.77;;;5.37;;
66483;SDS011;53299;52.160;7.556;2022-10-31T00:19:22;9.40;;;5.03;;
66483;SDS011;53299;52.160;7.556;2022-10-31T00:21:47;11.10;;;5.73;;
66483;SDS011;53299;52.160;7.556;2022-10-31T00:24:12;10.17;;;5.60;;
66483;SDS011;53299;52.160;7.556;2022-10-31T00:26:37;10.23;;;5.30;;
66483;SDS011;53299;52.160;7.556;2022-10-31T00:29:03;9.77;;;5.20;;
66483;SDS011;53299;52.160;7.556;2022-10-31T00:31:28;9.50;;;5.17;;
66483;SDS011;53299;52.160;7.556;2022-10-31T00:33:54;10.82;;;5.40;;
66483;SDS011;53299;52.160;7.556;2022-10-31T00:36:19;10.57;;;5.43;;
66483;SDS011;53299;52.160;7.556;2022-10-31T00:38:45;10.80;;;5.60;;
66483;SDS011;53299;52.160;7.556;2022-10-31T00:41:12;10.50;;;5.40;;
66483;SDS011;53299;52.160;7.556;2022-10-31T00:43:38;10.07;;;5.40;;
66483;SDS011;53299;52.160;7.556;2022-10-31T00:46:03;9.80;;;5.40;;
66483;SDS011;53299;52.160;7.556;2022-10-31T00:48:29;9.52;;;5.10;;
66483;SDS011;53299;52.160;7.556;2022-10-31T00:50:55;9.83;;;5.33;;
66483;SDS011;53299;52.160;7.556;2022-10-31T00:53:20;9.17;;;5.17;;
66483;SDS011;53299;52.160;7.556;2022-10-31T00:55:45;9.83;;;5.70;;
66483;SDS011;53299;52.160;7.556;2022-10-31T00:58:11;9.10;;;5.45;;
66483;SDS011;53299;52.160;7.556;2022-10-31T01:00:36;9.80;;;5.40;;
66483;SDS011;53299;52.160;7.556;2022-10-31T01:03:01;9.40;;;5.10;;
66483;SDS011;53299;52.160;7.556;2022-10-31T01:05:27;8.93;;;5.53;;
66483;SDS011;53299;52.160;7.556;2022-10-31T01:07:52;10.50;;;5.23;;
66483;SDS011;53299;52.160;7.556;2022-10-31T01:10:17;10.17;;;5.50;;
66483;SDS011;53299;52.160;7.556;2022-10-31T01:12:43;9.27;;;5.40;;
66483;SDS011;53299;52.160;7.556;2022-10-31T01:15:11;9.13;;;5.00;;
66483;SDS011;53299;52.160;7.556;2022-10-31T01:17:38;9.95;;;5.00;;
66483;SDS011;53299;52.160;7.556;2022-10-31T01:20:04;10.45;;;5.28;;
66483;SDS011;53299;52.160;7.556;2022-10-31T01:22:31;9.57;;;4.75;;
66483;SDS011;53299;52.160;7.556;2022-10-31T01:24:56;8.83;;;4.80;;
66483;SDS011;53299;52.160;7.556;2022-10-31T01:27:22;9.30;;;5.30;;
66483;SDS011;53299;52.160;7.556;2022-10-31T01:29:47;9.37;;;5.33;;
66483;SDS011;53299;52.160;7.556;2022-10-31T01:32:12;8.73;;;5.43;;
66483;SDS011;53299;52.160;7.556;2022-10-31T01:34:38;9.80;;;5.32;;
66483;SDS011;53299;52.160;7.556;2022-10-31T01:37:03;8.53;;;5.17;;
66483;SDS011;53299;52.160;7.556;2022-10-31T01:39:28;9.93;;;5.37;;
66483;SDS011;53299;52.160;7.556;2022-10-31T01:41:54;9.30;;;5.20;;
66483;SDS011;53299;52.160;7.556;2022-10-31T01:46:46;10.30;;;5.10;;
66483;SDS011;53299;52.160;7.556;2022-10-31T01:49:13;8.75;;;4.57;;
66483;SDS011;53299;52.160;7.556;2022-10-31T01:51:50;8.73;;;5.00;;
66483;SDS011;53299;52.160;7.556;2022-10-31T01:54:21;8.70;;;4.88;;
66483;SDS011;53299;52.160;7.556;2022-10-31T01:56:51;9.00;;;5.10;;
66483;SDS011;53299;52.160;7.556;2022-10-31T01:59:20;10.03;;;4.50;;
66483;SDS011;53299;52.160;7.556;2022-10-31T02:01:47;9.43;;;5.25;;
66483;SDS011;53299;52.160;7.556;2022-10-31T02:04:15;8.82;;;4.95;;
66483;SDS011;53299;52.160;7.556;2022-10-31T02:06:47;9.53;;;4.93;;
66483;SDS011;53299;52.160;7.556;2022-10-31T02:09:18;9.27;;;5.20;;
66483;SDS011;53299;52.160;7.556;2022-10-31T02:11:44;8.02;;;4.63;;
66483;SDS011;53299;52.160;7.556;2022-10-31T02:14:09;8.50;;;4.70;;
66483;SDS011;53299;52.160;7.556;2022-10-31T02:16:35;8.90;;;4.70;;
66483;SDS011;53299;52.160;7.556;2022-10-31T02:19:00;8.53;;;5.07;;
66483;SDS011;53299;52.160;7.556;2022-10-31T02:24:44;8.43;;;4.47;;
66483;SDS011;53299;52.160;7.556;2022-10-31T02:32:21;8.88;;;5.07;;
66483;SDS011;53299;52.160;7.556;2022-10-31T02:35:21;8.50;;;4.50;;
66483;SDS011;53299;52.160;7.556;2022-10-31T02:46:26;8.80;;;4.80;;
66483;SDS011;53299;52.160;7.556;2022-10-31T02:49:15;8.77;;;4.60;;
66483;SDS011;53299;52.160;7.556;2022-10-31T02:51:47;7.88;;;4.70;;
66483;SDS011;53299;52.160;7.556;2022-10-31T02:54:17;7.93;;;4.68;;
66483;SDS011;53299;52.160;7.556;2022-10-31T02:56:43;7.47;;;4.40;;
66483;SDS011;53299;52.160;7.556;2022-10-31T02:59:08;9.50;;;4.87;;
66483;SDS011;53299;52.160;7.556;2022-10-31T03:04:16;8.07;;;4.50;;
66483;SDS011;53299;52.160;7.556;2022-10-31T03:09:55;8.65;;;4.80;;
66483;SDS011;53299;52.160;7.556;2022-10-31T03:15:17;7.97;;;4.57;;
66483;SDS011;53299;52.160;7.556;2022-10-31T03:20:41;8.40;;;4.50;;
66483;SDS011;53299;52.160;7.556;2022-10-31T03:23:12;7.97;;;4.50;;
66483;SDS011;53299;52.160;7.556;2022-10-31T03:25:41;9.20;;;4.32;;
66483;SDS011;53299;52.160;7.556;2022-10-31T03:28:09;9.25;;;4.50;;
66483;SDS011;53299;52.160;7.556;2022-10-31T03:30:37;8.17;;;4.30;;
66483;SDS011;53299;52.160;7.556;2022-10-31T03:33:07;8.30;;;4.65;;
66483;SDS011;53299;52.160;7.556;2022-10-31T03:35:36;8.80;;;4.32;;
66483;SDS011;53299;52.160;7.556;2022-10-31T03:38:04;9.05;;;4.13;;
66483;SDS011;53299;52.160;7.556;2022-10-31T03:40:30;8.88;;;4.35;;
66483;SDS011;53299;52.160;7.556;2022-10-31T03:43:00;7.70;;;4.00;;
66483;SDS011;53299;52.160;7.556;2022-10-31T03:45:36;8.25;;;4.47;;
66483;SDS011;53299;52.160;7.556;2022-10-31T03:48:06;7.55;;;4.25;;
66483;SDS011;53299;52.160;7.556;2022-10-31T03:50:35;7.50;;;4.20;;
66483;SDS011;53299;52.160;7.556;2022-10-31T03:53:20;9.45;;;4.20;;
66483;SDS011;53299;52.160;7.556;2022-10-31T03:55:52;7.82;;;4.07;;
66483;SDS011;53299;52.160;7.556;2022-10-31T03:58:26;7.55;;;3.83;;
66483;SDS011;53299;52.160;7.556;2022-10-31T04:00:55;7.35;;;4.03;;
66483;SDS011;53299;52.160;7.556;2022-10-31T04:03:24;8.50;;;4.27;;
66483;SDS011;53299;52.160;7.556;2022-10-31T04:05:54;8.02;;;4.10;;
66483;SDS011;53299;52.160;7.556;2022-10-31T04:08:23;8.18;;;4.28;;
66483;SDS011;53299;52.160;7.556;2022-10-31T04:10:51;8.52;;;4.30;;
66483;SDS011;53299;52.160;7.556;2022-10-31T04:13:20;8.18;;;3.97;;
66483;SDS011;53299;52.160;7.556;2022-10-31T04:15:51;8.23;;;4.00;;
66483;SDS011;53299;52.160;7.556;2022-10-31T04:18:18;7.35;;;3.90;;
66483;SDS011;53299;52.160;7.556;2022-10-31T04:20:44;7.37;;;3.87;;
66483;SDS011;53299;52.160;7.556;2022-10-31T04:26:04;8.57;;;4.60;;
66483;SDS011;53299;52.160;7.556;2022-10-31T04:28:29;8.10;;;4.33;;
66483;SDS011;53299;52.160;7.556;2022-10-31T04:30:54;7.73;;;4.43;;
66483;SDS011;53299;52.160;7.556;2022-10-31T04:33:19;8.20;;;4.17;;
66483;SDS011;53299;52.160;7.556;2022-10-31T04:35:45;8.97;;;4.33;;
66483;SDS011;53299;52.160;7.556;2022-10-31T04:38:11;7.50;;;3.97;;
66483;SDS011;53299;52.160;7.556;2022-10-31T04:40:36;7.03;;;3.90;;
66483;SDS011;53299;52.160;7.556;2022-10-31T04:43:01;7.78;;;4.32;;
66483;SDS011;53299;52.160;7.556;2022-10-31T04:45:26;7.77;;;4.20;;
66483;SDS011;53299;52.160;7.556;2022-10-31T04:47:52;7.80;;;4.00;;
66483;SDS011;53299;52.160;7.556;2022-10-31T04:50:17;7.70;;;4.27;;
66483;SDS011;53299;52.160;7.556;2022-10-31T04:52:43;7.70;;;4.03;;
66483;SDS011;53299;52.160;7.556;2022-10-31T04:55:09;7.22;;;3.67;;
66483;SDS011;53299;52.160;7.556;2022-10-31T04:57:41;6.80;;;3.88;;
66483;SDS011;53299;52.160;7.556;2022-10-31T05:00:08;8.02;;;4.10;;
66483;SDS011;53299;52.160;7.556;2022-10-31T05:02:34;8.20;;;4.23;;
66483;SDS011;53299;52.160;7.556;2022-10-31T05:05:06;9.43;;;4.20;;
66483;SDS011;53299;52.160;7.556;2022-10-31T05:07:32;7.60;;;4.37;;
66483;SDS011;53299;52.160;7.556;2022-10-31T05:09:57;8.47;;;4.00;;
66483;SDS011;53299;52.160;7.556;2022-10-31T05:12:22;7.53;;;3.80;;
66483;SDS011;53299;52.160;7.556;2022-10-31T05:14:47;7.07;;;3.60;;
66483;SDS011;53299;52.160;7.556;2022-10-31T05:17:13;7.30;;;3.70;;
66483;SDS011;53299;52.160;7.556;2022-10-31T05:19:38;8.43;;;3.97;;
66483;SDS011;53299;52.160;7.556;2022-10-31T05:22:03;7.07;;;3.90;;
66483;SDS011;53299;52.160;7.556;2022-10-31T05:24:28;7.33;;;3.60;;
66483;SDS011;53299;52.160;7.556;2022-10-31T05:26:53;7.27;;;3.67;;
66483;SDS011;53299;52.160;7.556;2022-10-31T05:29:19;7.33;;;3.97;;
66483;SDS011;53299;52.160;7.556;2022-10-31T05:31:44;6.83;;;3.40;;
66483;SDS011;53299;52.160;7.556;2022-10-31T05:34:09;7.70;;;3.70;;
66483;SDS011;53299;52.160;7.556;2022-10-31T05:36:34;8.23;;;4.00;;
66483;SDS011;53299;52.160;7.556;2022-10-31T05:39:00;7.73;;;4.00;;
66483;SDS011;53299;52.160;7.556;2022-10-31T05:41:25;7.20;;;3.97;;
66483;SDS011;53299;52.160;7.556;2022-10-31T05:43:50;9.23;;;3.80;;
66483;SDS011;53299;52.160;7.556;2022-10-31T05:46:15;7.73;;;3.80;;
66483;SDS011;53299;52.160;7.556;2022-10-31T05:48:41;8.70;;;3.77;;
66483;SDS011;53299;52.160;7.556;2022-10-31T05:51:06;7.30;;;3.80;;
66483;SDS011;53299;52.160;7.556;2022-10-31T05:53:31;7.87;;;4.20;;
66483;SDS011;53299;52.160;7.556;2022-10-31T05:55:56;7.77;;;4.07;;
66483;SDS011;53299;52.160;7.556;2022-10-31T05:58:21;7.63;;;4.20;;
66483;SDS011;53299;52.160;7.556;2022-10-31T06:00:47;9.47;;;4.50;;
66483;SDS011;53299;52.160;7.556;2022-10-31T06:03:12;8.07;;;4.10;;
66483;SDS011;53299;52.160;7.556;2022-10-31T06:05:37;7.57;;;3.87;;
66483;SDS011;53299;52.160;7.556;2022-10-31T06:08:02;7.50;;;4.20;;
66483;SDS011;53299;52.160;7.556;2022-10-31T06:10:28;7.37;;;4.03;;
66483;SDS011;53299;52.160;7.556;2022-10-31T06:12:53;7.73;;;3.97;;
66483;SDS011;53299;52.160;7.556;2022-10-31T06:15:18;7.87;;;4.30;;
66483;SDS011;53299;52.160;7.556;2022-10-31T06:17:44;8.03;;;3.73;;
66483;SDS011;53299;52.160;7.556;2022-10-31T06:20:09;7.60;;;3.60;;
66483;SDS011;53299;52.160;7.556;2022-10-31T06:22:35;7.83;;;3.90;;
66483;SDS011;53299;52.160;7.556;2022-10-31T06:25:00;8.90;;;3.90;;
66483;SDS011;53299;52.160;7.556;2022-10-31T06:27:25;7.27;;;3.87;;
66483;SDS011;53299;52.160;7.556;2022-10-31T06:29:51;7.20;;;3.93;;
66483;SDS011;53299;52.160;7.556;2022-10-31T06:32:16;7.90;;;3.70;;
66483;SDS011;53299;52.160;7.556;2022-10-31T06:34:42;7.70;;;3.97;;
66483;SDS011;53299;52.160;7.556;2022-10-31T06:37:09;6.50;;;3.60;;
66483;SDS011;53299;52.160;7.556;2022-10-31T06:39:35;6.63;;;3.90;;
66483;SDS011;53299;52.160;7.556;2022-10-31T06:42:00;8.13;;;3.70;;
66483;SDS011;53299;52.160;7.556;2022-10-31T06:44:26;6.70;;;3.57;;
66483;SDS011;53299;52.160;7.556;2022-10-31T06:46:51;6.90;;;3.33;;
66483;SDS011;53299;52.160;7.556;2022-10-31T06:49:16;7.03;;;3.60;;
66483;SDS011;53299;52.160;7.556;2022-10-31T06:51:42;7.83;;;3.77;;
66483;SDS011;53299;52.160;7.556;2022-10-31T06:54:07;7.18;;;3.40;;
66483;SDS011;53299;52.160;7.556;2022-10-31T06:56:33;7.27;;;3.70;;
66483;SDS011;53299;52.160;7.556;2022-10-31T06:58:58;6.40;;;3.23;;
66483;SDS011;53299;52.160;7.556;2022-10-31T07:01:24;6.27;;;3.50;;
66483;SDS011;53299;52.160;7.556;2022-10-31T07:03:49;6.60;;;3.60;;
66483;SDS011;53299;52.160;7.556;2022-10-31T07:06:14;6.75;;;3.25;;
66483;SDS011;53299;52.160;7.556;2022-10-31T07:08:39;6.10;;;3.07;;
66483;SDS011;53299;52.160;7.556;2022-10-31T07:11:05;6.67;;;3.20;;
66483;SDS011;53299;52.160;7.556;2022-10-31T07:13:30;6.80;;;3.00;;
66483;SDS011;53299;52.160;7.556;2022-10-31T07:15:59;6.53;;;3.57;;
66483;SDS011;53299;52.160;7.556;2022-10-31T07:18:26;6.13;;;3.20;;
66483;SDS011;53299;52.160;7.556;2022-10-31T07:20:51;6.33;;;3.27;;
66483;SDS011;53299;52.160;7.556;2022-10-31T07:23:17;7.00;;;3.30;;
66483;SDS011;53299;52.160;7.556;2022-10-31T07:25:42;6.63;;;3.30;;
66483;SDS011;53299;52.160;7.556;2022-10-31T07:28:07;8.00;;;3.33;;
66483;SDS011;53299;52.160;7.556;2022-10-31T07:30:33;6.57;;;3.10;;
66483;SDS011;53299;52.160;7.556;2022-10-31T07:32:59;6.73;;;3.17;;
66483;SDS011;53299;52.160;7.556;2022-10-31T07:35:25;6.33;;;3.40;;
66483;SDS011;53299;52.160;7.556;2022-10-31T07:37:52;7.00;;;3.67;;
66483;SDS011;53299;52.160;7.556;2022-10-31T07:40:18;7.13;;;3.70;;
66483;SDS011;53299;52.160;7.556;2022-10-31T07:42:44;6.28;;;3.35;;
66483;SDS011;53299;52.160;7.556;2022-10-31T07:45:13;5.75;;;2.92;;
66483;SDS011;53299;52.160;7.556;2022-10-31T07:47:46;5.60;;;3.03;;
66483;SDS011;53299;52.160;7.556;2022-10-31T07:50:14;6.72;;;3.28;;
66483;SDS011;53299;52.160;7.556;2022-10-31T07:52:44;5.90;;;3.22;;
66483;SDS011;53299;52.160;7.556;2022-10-31T07:55:09;6.37;;;3.13;;
66483;SDS011;53299;52.160;7.556;2022-10-31T07:57:35;5.77;;;3.07;;
66483;SDS011;53299;52.160;7.556;2022-10-31T08:00:01;6.00;;;3.08;;
66483;SDS011;53299;52.160;7.556;2022-10-31T08:02:26;6.17;;;3.43;;
66483;SDS011;53299;52.160;7.556;2022-10-31T08:04:51;6.97;;;3.70;;
66483;SDS011;53299;52.160;7.556;2022-10-31T08:07:17;6.00;;;3.20;;
66483;SDS011;53299;52.160;7.556;2022-10-31T08:09:43;6.97;;;3.20;;
66483;SDS011;53299;52.160;7.556;2022-10-31T08:12:08;6.20;;;3.40;;
66483;SDS011;53299;52.160;7.556;2022-10-31T08:14:33;6.40;;;3.55;;
66483;SDS011;53299;52.160;7.556;2022-10-31T08:16:58;6.33;;;3.30;;
66483;SDS011;53299;52.160;7.556;2022-10-31T08:19:24;6.13;;;3.13;;
66483;SDS011;53299;52.160;7.556;2022-10-31T08:21:52;6.53;;;3.67;;
66483;SDS011;53299;52.160;7.556;2022-10-31T08:24:18;5.97;;;3.25;;
66483;SDS011;53299;52.160;7.556;2022-10-31T08:26:43;6.47;;;3.30;;
66483;SDS011;53299;52.160;7.556;2022-10-31T08:29:09;6.63;;;3.47;;
66483;SDS011;53299;52.160;7.556;2022-10-31T08:31:34;6.20;;;3.30;;
66483;SDS011;53299;52.160;7.556;2022-10-31T08:34:00;5.78;;;3.20;;
66483;SDS011;53299;52.160;7.556;2022-10-31T08:36:26;7.40;;;3.27;;
66483;SDS011;53299;52.160;7.556;2022-10-31T08:38:52;6.50;;;3.70;;
66483;SDS011;53299;52.160;7.556;2022-10-31T08:41:17;6.37;;;3.10;;
66483;SDS011;53299;52.160;7.556;2022-10-31T08:43:42;6.50;;;3.63;;
66483;SDS011;53299;52.160;7.556;2022-10-31T08:46:08;6.83;;;3.30;;
66483;SDS011;53299;52.160;7.556;2022-10-31T08:48:33;6.80;;;3.77;;
66483;SDS011;53299;52.160;7.556;2022-10-31T08:50:58;6.57;;;3.47;;
66483;SDS011;53299;52.160;7.556;2022-10-31T08:53:24;6.60;;;3.30;;
66483;SDS011;53299;52.160;7.556;2022-10-31T08:55:50;6.50;;;3.30;;
66483;SDS011;53299;52.160;7.556;2022-10-31T08:58:16;7.07;;;3.90;;
66483;SDS011;53299;52.160;7.556;2022-10-31T09:00:43;6.35;;;3.47;;
66483;SDS011;53299;52.160;7.556;2022-10-31T09:03:11;6.50;;;3.65;;
66483;SDS011;53299;52.160;7.556;2022-10-31T09:05:40;6.70;;;3.60;;
66483;SDS011;53299;52.160;7.556;2022-10-31T09:08:06;7.03;;;3.50;;
66483;SDS011;53299;52.160;7.556;2022-10-31T09:10:33;6.90;;;3.83;;
66483;SDS011;53299;52.160;7.556;2022-10-31T09:13:03;7.47;;;4.03;;
66483;SDS011;53299;52.160;7.556;2022-10-31T09:15:36;7.68;;;3.72;;
66483;SDS011;53299;52.160;7.556;2022-10-31T09:18:03;7.38;;;3.75;;
66483;SDS011;53299;52.160;7.556;2022-10-31T09:20:30;7.18;;;4.07;;
66483;SDS011;53299;52.160;7.556;2022-10-31T09:22:56;7.00;;;4.00;;
66483;SDS011;53299;52.160;7.556;2022-10-31T09:25:32;7.35;;;4.00;;
66483;SDS011;53299;52.160;7.556;2022-10-31T09:27:59;7.70;;;4.40;;
66483;SDS011;53299;52.160;7.556;2022-10-31T09:30:26;7.90;;;4.35;;
66483;SDS011;53299;52.160;7.556;2022-10-31T09:32:56;7.88;;;4.53;;
66483;SDS011;53299;52.160;7.556;2022-10-31T09:35:26;8.50;;;4.50;;
66483;SDS011;53299;52.160;7.556;2022-10-31T09:37:57;7.95;;;4.93;;
66483;SDS011;53299;52.160;7.556;2022-10-31T09:40:25;7.78;;;4.75;;
66483;SDS011;53299;52.160;7.556;2022-10-31T09:43:08;8.75;;;4.90;;
66483;SDS011;53299;52.160;7.556;2022-10-31T09:45:36;8.30;;;5.00;;
66483;SDS011;53299;52.160;7.556;2022-10-31T09:48:17;7.87;;;4.63;;
66483;SDS011;53299;52.160;7.556;2022-10-31T09:50:45;8.75;;;5.57;;
66483;SDS011;53299;52.160;7.556;2022-10-31T09:53:19;9.95;;;5.60;;
66483;SDS011;53299;52.160;7.556;2022-10-31T09:55:56;9.07;;;5.90;;
66483;SDS011;53299;52.160;7.556;2022-10-31T09:58:23;9.60;;;5.85;;
66483;SDS011;53299;52.160;7.556;2022-10-31T10:00:51;10.57;;;6.47;;
66483;SDS011;53299;52.160;7.556;2022-10-31T10:08:39;10.07;;;6.35;;
66483;SDS011;53299;52.160;7.556;2022-10-31T10:27:39;10.88;;;6.80;;
66483;SDS011;53299;52.160;7.556;2022-10-31T10:32:59;11.57;;;6.93;;
66483;SDS011;53299;52.160;7.556;2022-10-31T10:35:31;13.50;;;7.93;;
66483;SDS011;53299;52.160;7.556;2022-10-31T10:38:07;14.68;;;8.68;;
66483;SDS011;53299;52.160;7.556;2022-10-31T10:40:39;14.60;;;8.25;;
66483;SDS011;53299;52.160;7.556;2022-10-31T10:45:29;15.57;;;8.27;;
66483;SDS011;53299;52.160;7.556;2022-10-31T10:47:57;13.40;;;8.10;;
66483;SDS011;53299;52.160;7.556;2022-10-31T10:50:34;16.75;;;8.95;;
66483;SDS011;53299;52.160;7.556;2022-10-31T10:53:22;15.15;;;8.95;;
66483;SDS011;53299;52.160;7.556;2022-10-31T10:55:58;14.95;;;8.52;;
66483;SDS011;53299;52.160;7.556;2022-10-31T10:58:45;14.98;;;8.52;;
66483;SDS011;53299;52.160;7.556;2022-10-31T11:01:11;16.03;;;8.90;;
66483;SDS011;53299;52.160;7.556;2022-10-31T11:03:37;17.63;;;9.05;;
66483;SDS011;53299;52.160;7.556;2022-10-31T11:06:03;16.50;;;8.40;;
66483;SDS011;53299;52.160;7.556;2022-10-31T11:08:33;14.50;;;8.10;;
66483;SDS011;53299;52.160;7.556;2022-10-31T11:11:19;14.15;;;8.45;;
66483;SDS011;53299;52.160;7.556;2022-10-31T11:13:49;13.80;;;8.43;;
66483;SDS011;53299;52.160;7.556;2022-10-31T11:16:33;13.32;;;7.85;;
66483;SDS011;53299;52.160;7.556;2022-10-31T11:19:13;13.88;;;8.23;;
66483;SDS011;53299;52.160;7.556;2022-10-31T11:21:42;15.82;;;8.32;;
66483;SDS011;53299;52.160;7.556;2022-10-31T11:26:36;14.27;;;7.63;;
66483;SDS011;53299;52.160;7.556;2022-10-31T11:29:03;14.15;;;8.02;;
66483;SDS011;53299;52.160;7.556;2022-10-31T11:31:29;13.38;;;7.80;;
66483;SDS011;53299;52.160;7.556;2022-10-31T11:33:59;13.47;;;7.87;;
66483;SDS011;53299;52.160;7.556;2022-10-31T11:36:27;12.60;;;7.90;;
66483;SDS011;53299;52.160;7.556;2022-10-31T11:38:55;12.48;;;7.90;;
66483;SDS011;53299;52.160;7.556;2022-10-31T11:41:27;14.70;;;8.43;;
66483;SDS011;53299;52.160;7.556;2022-10-31T11:43:56;12.97;;;8.10;;
66483;SDS011;53299;52.160;7.556;2022-10-31T11:46:30;12.55;;;7.45;;
66483;SDS011;53299;52.160;7.556;2022-10-31T11:49:00;13.45;;;7.55;;
66483;SDS011;53299;52.160;7.556;2022-10-31T11:51:28;13.55;;;7.65;;
66483;SDS011;53299;52.160;7.556;2022-10-31T11:53:59;11.88;;;7.38;;
66483;SDS011;53299;52.160;7.556;2022-10-31T11:56:28;13.63;;;7.93;;
66483;SDS011;53299;52.160;7.556;2022-10-31T11:59:04;13.27;;;7.85;;
66483;SDS011;53299;52.160;7.556;2022-10-31T12:01:32;12.43;;;7.22;;
66483;SDS011;53299;52.160;7.556;2022-10-31T12:04:07;13.93;;;7.60;;
66483;SDS011;53299;52.160;7.556;2022-10-31T12:06:35;13.10;;;7.15;;
66483;SDS011;53299;52.160;7.556;2022-10-31T12:09:02;12.77;;;7.90;;
66483;SDS011;53299;52.160;7.556;2022-10-31T12:11:43;12.95;;;7.47;;
66483;SDS011;53299;52.160;7.556;2022-10-31T12:16:42;13.68;;;7.50;;
66483;SDS011;53299;52.160;7.556;2022-10-31T12:19:25;12.23;;;7.35;;
66483;SDS011;53299;52.160;7.556;2022-10-31T12:22:05;12.80;;;7.73;;
66483;SDS011;53299;52.160;7.556;2022-10-31T12:24:34;12.43;;;7.90;;
66483;SDS011;53299;52.160;7.556;2022-10-31T12:30:19;13.90;;;8.20;;
66483;SDS011;53299;52.160;7.556;2022-10-31T12:41:46;12.82;;;7.00;;
66483;SDS011;53299;52.160;7.556;2022-10-31T12:55:17;13.70;;;7.53;;
66483;SDS011;53299;52.160;7.556;2022-10-31T12:58:18;12.02;;;7.47;;
66483;SDS011;53299;52.160;7.556;2022-10-31T13:00:48;11.63;;;7.05;;
66483;SDS011;53299;52.160;7.556;2022-10-31T13:03:21;12.30;;;6.90;;
66483;SDS011;53299;52.160;7.556;2022-10-31T13:06:13;11.65;;;6.82;;
66483;SDS011;53299;52.160;7.556;2022-10-31T13:08:46;12.35;;;6.90;;
66483;SDS011;53299;52.160;7.556;2022-10-31T13:11:15;10.30;;;6.53;;
66483;SDS011;53299;52.160;7.556;2022-10-31T13:13:55;12.15;;;7.00;;
66483;SDS011;53299;52.160;7.556;2022-10-31T13:16:59;12.33;;;6.40;;
66483;SDS011;53299;52.160;7.556;2022-10-31T13:19:42;10.02;;;5.97;;
66483;SDS011;53299;52.160;7.556;2022-10-31T13:22:10;14.35;;;6.80;;
66483;SDS011;53299;52.160;7.556;2022-10-31T13:25:15;12.85;;;6.53;;
66483;SDS011;53299;52.160;7.556;2022-10-31T13:27:56;11.50;;;6.80;;
66483;SDS011;53299;52.160;7.556;2022-10-31T13:30:25;12.73;;;6.47;;
66483;SDS011;53299;52.160;7.556;2022-10-31T13:33:11;10.52;;;6.15;;
66483;SDS011;53299;52.160;7.556;2022-10-31T13:35:43;11.15;;;6.15;;
66483;SDS011;53299;52.160;7.556;2022-10-31T13:40:51;11.68;;;6.28;;
66483;SDS011;53299;52.160;7.556;2022-10-31T13:48:58;11.35;;;6.18;;
66483;SDS011;53299;52.160;7.556;2022-10-31T13:51:24;11.10;;;6.40;;
66483;SDS011;53299;52.160;7.556;2022-10-31T13:56:18;10.70;;;6.60;;
66483;SDS011;53299;52.160;7.556;2022-10-31T13:58:56;10.32;;;6.00;;
66483;SDS011;53299;52.160;7.556;2022-10-31T14:01:33;11.43;;;5.82;;
66483;SDS011;53299;52.160;7.556;2022-10-31T14:09:18;12.05;;;6.25;;
66483;SDS011;53299;52.160;7.556;2022-10-31T14:11:47;10.50;;;6.25;;
66483;SDS011;53299;52.160;7.556;2022-10-31T14:14:14;10.15;;;5.95;;
66483;SDS011;53299;52.160;7.556;2022-10-31T14:16:40;10.60;;;5.88;;
66483;SDS011;53299;52.160;7.556;2022-10-31T14:19:16;9.87;;;5.67;;
66483;SDS011;53299;52.160;7.556;2022-10-31T14:21:44;10.27;;;5.60;;
66483;SDS011;53299;52.160;7.556;2022-10-31T14:24:14;9.75;;;5.63;;
66483;SDS011;53299;52.160;7.556;2022-10-31T14:29:25;9.48;;;5.70;;
66483;SDS011;53299;52.160;7.556;2022-10-31T14:32:06;9.93;;;5.70;;
66483;SDS011;53299;52.160;7.556;2022-10-31T14:34:39;11.43;;;5.97;;
66483;SDS011;53299;52.160;7.556;2022-10-31T14:40:17;10.40;;;5.28;;
66483;SDS011;53299;52.160;7.556;2022-10-31T14:43:10;10.88;;;5.95;;
66483;SDS011;53299;52.160;7.556;2022-10-31T14:48:38;9.53;;;5.70;;
66483;SDS011;53299;52.160;7.556;2022-10-31T14:51:17;9.80;;;5.93;;
66483;SDS011;53299;52.160;7.556;2022-10-31T14:53:47;9.23;;;5.53;;
66483;SDS011;53299;52.160;7.556;2022-10-31T14:56:17;10.82;;;5.78;;
66483;SDS011;53299;52.160;7.556;2022-10-31T14:58:48;10.45;;;5.95;;
66483;SDS011;53299;52.160;7.556;2022-10-31T15:01:24;11.10;;;6.30;;
66483;SDS011;53299;52.160;7.556;2022-10-31T15:03:52;11.43;;;6.38;;
66483;SDS011;53299;52.160;7.556;2022-10-31T15:06:19;10.98;;;6.10;;
66483;SDS011;53299;52.160;7.556;2022-10-31T15:08:51;11.35;;;6.45;;
66483;SDS011;53299;52.160;7.556;2022-10-31T15:11:19;10.83;;;5.93;;
66483;SDS011;53299;52.160;7.556;2022-10-31T15:16:22;10.55;;;5.90;;
66483;SDS011;53299;52.160;7.556;2022-10-31T15:19:05;10.60;;;5.82;;
66483;SDS011;53299;52.160;7.556;2022-10-31T15:21:35;11.32;;;6.38;;
66483;SDS011;53299;52.160;7.556;2022-10-31T15:24:05;10.10;;;5.80;;
66483;SDS011;53299;52.160;7.556;2022-10-31T15:26:38;10.35;;;6.50;;
66483;SDS011;53299;52.160;7.556;2022-10-31T15:29:05;11.00;;;6.38;;
66483;SDS011;53299;52.160;7.556;2022-10-31T15:31:37;12.32;;;6.55;;
66483;SDS011;53299;52.160;7.556;2022-10-31T15:34:05;12.07;;;6.67;;
66483;SDS011;53299;52.160;7.556;2022-10-31T15:36:40;11.45;;;6.90;;
66483;SDS011;53299;52.160;7.556;2022-10-31T15:39:09;11.50;;;6.37;;
66483;SDS011;53299;52.160;7.556;2022-10-31T15:41:39;12.93;;;6.70;;
66483;SDS011;53299;52.160;7.556;2022-10-31T15:44:13;11.70;;;6.57;;
66483;SDS011;53299;52.160;7.556;2022-10-31T15:46:42;10.82;;;6.65;;
66483;SDS011;53299;52.160;7.556;2022-10-31T15:49:23;11.23;;;6.57;;
66483;SDS011;53299;52.160;7.556;2022-10-31T15:51:54;10.68;;;6.63;;
66483;SDS011;53299;52.160;7.556;2022-10-31T15:54:19;11.55;;;6.63;;
66483;SDS011;53299;52.160;7.556;2022-10-31T15:56:44;11.33;;;6.63;;
66483;SDS011;53299;52.160;7.556;2022-10-31T15:59:18;14.10;;;6.67;;
66483;SDS011;53299;52.160;7.556;2022-10-31T16:01:55;13.15;;;7.18;;
66483;SDS011;53299;52.160;7.556;2022-10-31T16:04:24;11.90;;;6.72;;
66483;SDS011;53299;52.160;7.556;2022-10-31T16:07:00;11.07;;;6.43;;
66483;SDS011;53299;52.160;7.556;2022-10-31T16:09:27;13.65;;;7.40;;
66483;SDS011;53299;52.160;7.556;2022-10-31T16:11:54;11.80;;;7.03;;
66483;SDS011;53299;52.160;7.556;2022-10-31T16:14:25;10.47;;;6.90;;
66483;SDS011;53299;52.160;7.556;2022-10-31T16:16:54;12.73;;;6.70;;
66483;SDS011;53299;52.160;7.556;2022-10-31T16:19:26;12.23;;;7.00;;
66483;SDS011;53299;52.160;7.556;2022-10-31T16:22:07;12.73;;;7.15;;
66483;SDS011;53299;52.160;7.556;2022-10-31T16:24:54;12.98;;;7.25;;
66483;SDS011;53299;52.160;7.556;2022-10-31T16:27:28;12.13;;;7.00;;
66483;SDS011;53299;52.160;7.556;2022-10-31T16:29:56;12.00;;;7.32;;
66483;SDS011;53299;52.160;7.556;2022-10-31T16:35:01;11.95;;;6.78;;
66483;SDS011;53299;52.160;7.556;2022-10-31T16:37:32;11.80;;;6.93;;
66483;SDS011;53299;52.160;7.556;2022-10-31T16:39:57;12.23;;;6.67;;
66483;SDS011;53299;52.160;7.556;2022-10-31T16:42:23;11.10;;;6.83;;
66483;SDS011;53299;52.160;7.556;2022-10-31T16:44:48;10.53;;;6.80;;
66483;SDS011;53299;52.160;7.556;2022-10-31T16:47:14;11.63;;;6.90;;
66483;SDS011;53299;52.160;7.556;2022-10-31T16:49:48;11.00;;;6.93;;
66483;SDS011;53299;52.160;7.556;2022-10-31T16:52:13;10.85;;;7.03;;